createdAt,value
2022-08-11T00:01:18.115Z,10.70
2022-08-11T00:03:50.122Z,10.80
2022-08-11T00:06:29.107Z,10.70
2022-08-11T00:08:57.478Z,10.90
2022-08-11T00:11:33.980Z,11.30
2022-08-11T00:14:03.273Z,11.50
2022-08-11T00:16:30.967Z,11.30
2022-08-11T00:18:59.019Z,11.90
2022-08-11T00:21:54.714Z,11.30
2022-08-11T00:24:14.931Z,11.70
2022-08-11T00:26:48.725Z,10.40
2022-08-11T00:29:19.723Z,10.20
2022-08-11T00:31:53.604Z,10.70
2022-08-11T00:34:27.463Z,11.10
2022-08-11T00:37:00.343Z,11.20
2022-08-11T00:39:29.168Z,11.90
2022-08-11T00:42:28.240Z,11.90
2022-08-11T00:45:21.225Z,13.30
2022-08-11T00:48:07.766Z,13.00
2022-08-11T00:51:02.604Z,13.40
2022-08-11T00:53:47.001Z,13.40
2022-08-11T00:56:17.057Z,13.60
2022-08-11T00:59:05.683Z,13.70
2022-08-11T01:01:58.421Z,14.20
2022-08-11T01:05:01.861Z,15.10
2022-08-11T01:08:06.552Z,15.30
2022-08-11T01:11:15.609Z,16.20
2022-08-11T01:13:46.888Z,17.00
2022-08-11T01:16:35.543Z,15.70
2022-08-11T01:19:27.725Z,15.30
2022-08-11T01:22:24.845Z,15.50
2022-08-11T01:25:03.909Z,16.50
2022-08-11T01:28:08.820Z,16.80
2022-08-11T01:30:54.469Z,17.70
2022-08-11T01:33:56.680Z,18.70
2022-08-11T01:36:37.999Z,19.50
2022-08-11T01:39:19.859Z,20.10
2022-08-11T01:42:20.418Z,22.40
2022-08-11T01:45:24.258Z,23.40
2022-08-11T01:48:07.328Z,24.30
2022-08-11T01:50:43.384Z,25.20
2022-08-11T01:53:34.708Z,28.20
2022-08-11T01:56:29.584Z,30.00
2022-08-11T01:59:21.302Z,30.70
2022-08-11T02:02:50.728Z,28.60
2022-08-11T02:05:37.008Z,30.00
2022-08-11T02:08:33.643Z,29.70
2022-08-11T02:11:30.439Z,30.90
2022-08-11T02:14:22.476Z,32.50
2022-08-11T02:16:58.412Z,34.80
2022-08-11T02:19:53.304Z,34.80
2022-08-11T02:23:23.979Z,34.30
2022-08-11T02:26:16.061Z,35.90
2022-08-11T02:29:05.549Z,37.30
2022-08-11T02:32:23.886Z,36.20
2022-08-11T02:35:42.869Z,36.80
2022-08-11T02:38:31.149Z,37.60
2022-08-11T02:41:40.267Z,39.50
2022-08-11T02:44:33.726Z,39.80
2022-08-11T02:47:08.444Z,39.50
2022-08-11T02:50:07.403Z,40.30
2022-08-11T02:53:04.021Z,42.10
2022-08-11T02:55:57.410Z,44.50
2022-08-11T02:59:14.005Z,44.20
2022-08-11T03:02:11.028Z,44.80
2022-08-11T03:04:49.926Z,45.70
2022-08-11T03:08:00.103Z,45.70
2022-08-11T03:10:36.139Z,46.30
2022-08-11T03:13:40.444Z,46.10
2022-08-11T03:16:44.273Z,46.40
2022-08-11T03:19:14.193Z,47.00
2022-08-11T03:22:02.784Z,47.90
2022-08-11T03:24:46.473Z,47.80
2022-08-11T03:27:58.354Z,48.00
2022-08-11T03:30:49.885Z,47.80
2022-08-11T03:33:49.823Z,48.70
2022-08-11T03:37:15.422Z,51.20
2022-08-11T03:39:59.721Z,49.60
2022-08-11T03:43:03.519Z,50.50
2022-08-11T03:45:49.250Z,52.20
2022-08-11T03:48:41.984Z,52.40
2022-08-11T03:51:27.622Z,54.00
2022-08-11T03:54:43.340Z,54.10
2022-08-11T03:57:28.194Z,53.80
2022-08-11T04:00:35.700Z,54.90
2022-08-11T04:03:39.682Z,55.20
2022-08-11T04:06:28.470Z,55.50
2022-08-11T04:09:26.476Z,57.50
2022-08-11T04:12:36.318Z,58.00
2022-08-11T04:15:56.315Z,57.90
2022-08-11T04:18:53.739Z,59.40
2022-08-11T04:21:38.868Z,59.90
2022-08-11T04:24:39.636Z,59.80
2022-08-11T04:27:37.034Z,61.40
2022-08-11T04:30:17.570Z,62.00
2022-08-11T04:33:13.778Z,64.00
2022-08-11T04:35:50.945Z,64.50
2022-08-11T04:39:05.633Z,64.10
2022-08-11T04:42:16.314Z,64.00
2022-08-11T04:45:12.025Z,65.10
2022-08-11T04:48:38.421Z,66.60
2022-08-11T04:51:39.639Z,68.90
2022-08-11T04:54:45.129Z,69.10
2022-08-11T04:57:41.545Z,68.60
2022-08-11T05:00:30.708Z,68.70
2022-08-11T05:03:25.439Z,69.70
2022-08-11T05:06:24.776Z,69.30
2022-08-11T05:09:12.608Z,68.80
2022-08-11T05:12:01.855Z,67.90
2022-08-11T05:15:00.043Z,68.50
2022-08-11T05:18:15.673Z,69.30
2022-08-11T05:21:07.745Z,64.70
2022-08-11T05:23:54.785Z,64.80
2022-08-11T05:26:47.744Z,67.40
2022-08-11T05:29:50.564Z,67.60
2022-08-11T05:32:36.606Z,67.20
2022-08-11T05:35:05.813Z,68.30
2022-08-11T05:38:01.885Z,67.90
2022-08-11T05:40:51.334Z,66.70
2022-08-11T05:44:20.234Z,66.60
2022-08-11T05:46:47.629Z,67.10
2022-08-11T05:49:34.095Z,67.70
2022-08-11T05:52:31.822Z,67.00
2022-08-11T05:55:22.246Z,66.50
2022-08-11T05:57:51.865Z,66.70
2022-08-11T06:00:19.491Z,65.50
2022-08-11T06:02:51.610Z,64.00
2022-08-11T06:05:46.465Z,62.00
2022-08-11T06:08:17.011Z,60.90
2022-08-11T06:10:45.810Z,61.00
2022-08-11T06:13:16.641Z,59.00
2022-08-11T06:15:48.827Z,58.20
2022-08-11T06:18:17.044Z,57.10
2022-08-11T06:20:55.283Z,58.30
2022-08-11T06:23:25.417Z,58.80
2022-08-11T06:25:56.297Z,58.00
2022-08-11T06:28:33.048Z,55.20
2022-08-11T06:31:02.062Z,53.00
2022-08-11T06:33:43.936Z,50.70
2022-08-11T06:36:23.873Z,48.70
2022-08-11T06:38:53.569Z,48.30
2022-08-11T06:41:30.379Z,45.80
2022-08-11T06:44:05.655Z,44.60
2022-08-11T06:46:41.758Z,40.70
2022-08-11T06:49:30.472Z,37.80
2022-08-11T06:52:04.456Z,34.90
2022-08-11T06:54:41.466Z,31.80
2022-08-11T06:57:32.409Z,30.60
2022-08-11T07:00:28.150Z,27.50
2022-08-11T07:03:10.543Z,25.20
2022-08-11T07:05:55.955Z,23.70
2022-08-11T07:09:23.645Z,22.10
2022-08-11T07:12:18.111Z,20.90
2022-08-11T07:15:15.244Z,19.40
2022-08-11T07:17:49.804Z,16.60
2022-08-11T07:20:36.807Z,16.30
2022-08-11T07:23:26.607Z,15.80
2022-08-11T07:26:15.530Z,14.00
2022-08-11T07:29:00.837Z,13.40
2022-08-11T07:31:50.611Z,12.30
2022-08-11T07:34:35.969Z,12.30
2022-08-11T07:37:10.216Z,10.60
2022-08-11T07:39:39.302Z,9.50
2022-08-11T07:42:09.871Z,8.40
2022-08-11T07:45:00.361Z,6.80
2022-08-11T07:47:47.680Z,7.10
2022-08-11T07:50:33.793Z,6.10
2022-08-11T07:53:02.675Z,5.30
2022-08-11T07:55:49.052Z,3.60
2022-08-11T07:58:44.971Z,3.10
2022-08-11T08:01:39.981Z,2.60
2022-08-11T08:04:28.070Z,1.70
2022-08-11T08:07:14.701Z,1.40
2022-08-11T08:10:03.615Z,1.00
2022-08-11T08:12:50.464Z,1.00
2022-08-11T08:15:38.966Z,1.00
2022-08-11T08:18:09.629Z,1.00
2022-08-11T08:20:56.834Z,1.00
2022-08-11T08:23:33.997Z,1.00
2022-08-11T08:26:04.732Z,1.00
2022-08-11T08:28:33.592Z,1.00
2022-08-11T08:31:00.925Z,1.00
2022-08-11T08:33:30.365Z,1.00
2022-08-11T08:36:12.787Z,1.00
2022-08-11T08:38:42.948Z,1.00
2022-08-11T08:41:13.297Z,1.00
2022-08-11T08:43:49.599Z,1.00
2022-08-11T08:46:20.794Z,1.00
2022-08-11T08:48:49.234Z,1.00
2022-08-11T08:52:00.836Z,1.00
2022-08-11T08:54:34.194Z,1.00
2022-08-11T08:57:05.545Z,1.00
2022-08-11T08:59:47.513Z,1.00
2022-08-11T09:02:33.490Z,1.00
2022-08-11T09:05:04.710Z,1.00
2022-08-11T09:07:38.681Z,1.00
2022-08-11T09:10:09.712Z,1.00
2022-08-11T09:12:39.441Z,1.00
2022-08-11T09:15:10.181Z,1.00
2022-08-11T09:17:43.218Z,1.00
2022-08-11T09:20:24.782Z,1.00
2022-08-11T09:26:30.480Z,1.00
2022-08-11T09:28:59.739Z,1.00
2022-08-11T09:31:30.331Z,1.00
2022-08-11T09:33:58.782Z,1.00
2022-08-11T09:36:45.056Z,1.00
2022-08-11T09:39:32.315Z,1.00
2022-08-11T09:42:05.568Z,1.00
2022-08-11T09:44:48.855Z,1.00
2022-08-11T09:47:23.634Z,1.00
2022-08-11T09:49:53.840Z,1.00
2022-08-11T09:52:23.979Z,1.00
2022-08-11T09:54:52.337Z,1.00
2022-08-11T09:57:41.961Z,1.00
2022-08-11T10:00:13.600Z,1.00
2022-08-11T10:02:44.249Z,1.00
2022-08-11T10:05:32.152Z,1.00
2022-08-11T10:08:01.519Z,1.00
2022-08-11T10:10:29.976Z,1.00
2022-08-11T10:13:02.924Z,1.00
2022-08-11T10:15:35.065Z,1.00
2022-08-11T10:18:27.499Z,1.00
2022-08-11T10:21:21.585Z,1.00
2022-08-11T10:24:07.117Z,1.00
2022-08-11T10:26:53.845Z,1.00
2022-08-11T10:30:02.092Z,1.00
2022-08-11T10:32:58.583Z,1.00
2022-08-11T10:35:29.634Z,1.00
2022-08-11T10:38:07.916Z,1.00
2022-08-11T10:40:40.399Z,1.00
2022-08-11T10:43:14.293Z,1.00
2022-08-11T10:46:04.990Z,1.00
2022-08-11T10:48:41.326Z,1.00
2022-08-11T10:51:14.774Z,1.00
2022-08-11T10:54:05.831Z,1.00
2022-08-11T10:56:57.580Z,1.00
2022-08-11T10:59:28.183Z,1.00
2022-08-11T11:01:56.035Z,1.00
2022-08-11T11:04:51.325Z,1.00
2022-08-11T11:07:24.218Z,1.00
2022-08-11T11:09:56.142Z,1.00
2022-08-11T11:12:58.071Z,1.00
2022-08-11T11:15:45.980Z,1.00
2022-08-11T11:18:28.814Z,1.00
2022-08-11T11:21:04.512Z,1.00
2022-08-11T11:23:37.312Z,1.00
2022-08-11T11:26:27.189Z,1.00
2022-08-11T11:29:15.289Z,1.00
2022-08-11T11:32:09.028Z,1.00
2022-08-11T11:34:59.303Z,1.00
2022-08-11T11:37:26.596Z,1.00
2022-08-11T11:39:55.138Z,1.00
2022-08-11T11:42:22.977Z,1.00
2022-08-11T11:44:54.084Z,1.00
2022-08-11T11:47:23.365Z,1.00
2022-08-11T11:49:50.914Z,1.00
2022-08-11T11:52:21.241Z,1.00
2022-08-11T11:54:50.810Z,1.00
2022-08-11T11:57:38.000Z,1.00
2022-08-11T12:00:33.602Z,1.00
2022-08-11T12:03:03.850Z,1.00
2022-08-11T12:05:34.580Z,1.00
2022-08-11T12:08:16.298Z,1.00
2022-08-11T12:10:49.812Z,1.00
2022-08-11T12:13:47.500Z,1.00
2022-08-11T12:16:33.465Z,1.00
2022-08-11T12:19:11.576Z,1.00
2022-08-11T12:22:01.554Z,1.00
2022-08-11T12:24:49.729Z,1.00
2022-08-11T12:27:20.536Z,1.00
2022-08-11T12:30:05.948Z,1.00
2022-08-11T12:32:36.370Z,1.00
2022-08-11T12:35:05.094Z,1.00
2022-08-11T12:37:39.233Z,1.00
2022-08-11T12:40:43.494Z,1.00
2022-08-11T12:43:41.491Z,1.00
2022-08-11T12:46:12.612Z,1.00
2022-08-11T12:49:07.697Z,1.00
2022-08-11T12:52:14.533Z,1.00
2022-08-11T12:55:00.746Z,1.00
2022-08-11T12:57:49.463Z,1.00
2022-08-11T13:00:37.220Z,1.00
2022-08-11T13:03:26.361Z,1.00
2022-08-11T13:05:56.353Z,1.00
2022-08-11T13:08:25.592Z,1.00
2022-08-11T13:11:13.519Z,1.00
2022-08-11T13:13:54.868Z,1.00
2022-08-11T13:16:52.657Z,1.00
2022-08-11T13:19:21.656Z,1.00
2022-08-11T13:21:50.384Z,1.00
2022-08-11T13:24:18.554Z,1.00
2022-08-11T13:26:50.100Z,1.00
2022-08-11T13:29:22.826Z,1.00
2022-08-11T13:31:51.609Z,1.00
2022-08-11T13:34:20.445Z,1.00
2022-08-11T13:36:54.265Z,1.00
2022-08-11T13:39:24.243Z,1.00
2022-08-11T13:41:57.338Z,1.00
2022-08-11T13:44:27.654Z,1.00
2022-08-11T13:47:04.501Z,1.00
2022-08-11T13:49:36.031Z,1.00
2022-08-11T13:52:11.728Z,1.00
2022-08-11T13:54:41.113Z,1.00
2022-08-11T13:57:13.843Z,1.00
2022-08-11T14:00:09.749Z,1.00
2022-08-11T14:02:53.722Z,1.00
2022-08-11T14:05:27.474Z,1.00
2022-08-11T14:08:01.866Z,1.00
2022-08-11T14:10:32.992Z,1.00
2022-08-11T14:13:42.281Z,1.00
2022-08-11T14:16:43.001Z,1.00
2022-08-11T14:19:13.501Z,1.00
2022-08-11T14:22:07.351Z,1.00
2022-08-11T14:24:42.930Z,1.00
2022-08-11T14:28:30.424Z,1.00
2022-08-11T14:30:00.743Z,1.00
2022-08-11T14:32:27.926Z,1.00
2022-08-11T14:34:55.647Z,1.00
2022-08-11T14:37:25.300Z,1.00
2022-08-11T14:40:02.263Z,1.00
2022-08-11T14:42:49.429Z,1.00
2022-08-11T14:45:58.455Z,1.00
2022-08-11T14:48:23.718Z,1.00
2022-08-11T14:50:51.450Z,1.00
2022-08-11T14:53:22.392Z,1.00
2022-08-11T14:56:08.586Z,1.00
2022-08-11T14:58:43.081Z,1.00
2022-08-11T15:01:30.578Z,1.00
2022-08-11T15:04:34.033Z,1.00
2022-08-11T15:06:47.336Z,1.00
2022-08-11T15:09:15.081Z,1.00
2022-08-11T15:12:04.517Z,1.00
2022-08-11T15:14:55.790Z,1.00
2022-08-11T15:17:23.909Z,1.00
2022-08-11T15:20:18.298Z,1.00
2022-08-11T15:23:03.884Z,1.00
2022-08-11T15:25:34.639Z,1.00
2022-08-11T15:28:22.180Z,1.00
2022-08-11T15:31:12.867Z,1.00
2022-08-11T15:34:01.315Z,1.00
2022-08-11T15:36:50.541Z,1.00
2022-08-11T15:40:31.770Z,1.00
2022-08-11T15:43:29.366Z,1.00
2022-08-11T15:46:02.551Z,1.00
2022-08-11T15:48:32.598Z,1.00
2022-08-11T15:51:12.586Z,1.00
2022-08-11T15:53:56.505Z,1.00
2022-08-11T15:56:28.224Z,1.00
2022-08-11T15:59:41.101Z,1.00
2022-08-11T16:02:23.978Z,1.00
2022-08-11T16:04:52.854Z,1.00
2022-08-11T16:07:26.796Z,1.00
2022-08-11T16:10:00.549Z,1.00
2022-08-11T16:12:34.183Z,1.00
2022-08-11T16:15:29.448Z,1.00
2022-08-11T16:18:06.724Z,1.00
2022-08-11T16:20:34.865Z,1.00
2022-08-11T16:23:04.778Z,1.00
2022-08-11T16:27:03.086Z,1.00
2022-08-11T16:28:24.675Z,1.00
2022-08-11T16:30:53.426Z,1.00
2022-08-11T16:33:50.082Z,1.00
2022-08-11T16:36:31.757Z,1.00
2022-08-11T16:39:00.262Z,1.00
2022-08-11T16:41:49.369Z,1.00
2022-08-11T16:44:38.369Z,1.00
2022-08-11T16:47:07.817Z,1.00
2022-08-11T16:49:52.702Z,1.00
2022-08-11T16:52:22.042Z,1.00
2022-08-11T16:54:49.538Z,1.00
2022-08-11T16:57:44.183Z,1.00
2022-08-11T17:00:15.472Z,1.00
2022-08-11T17:03:15.612Z,1.00
2022-08-11T17:06:09.031Z,1.00
2022-08-11T17:09:13.525Z,1.00
2022-08-11T17:12:08.903Z,1.00
2022-08-11T17:14:43.701Z,1.00
2022-08-11T17:17:23.881Z,1.00
2022-08-11T17:20:42.089Z,1.00
2022-08-11T17:23:02.020Z,1.00
2022-08-11T17:25:32.331Z,1.00
2022-08-11T17:28:24.430Z,1.00
2022-08-11T17:31:22.803Z,1.00
2022-08-11T17:34:10.058Z,1.00
2022-08-11T17:36:41.667Z,1.00
2022-08-11T17:39:13.239Z,1.00
2022-08-11T17:42:07.787Z,1.00
2022-08-11T17:44:54.509Z,1.00
2022-08-11T17:47:43.186Z,1.00
2022-08-11T17:50:17.124Z,1.00
2022-08-11T17:53:05.704Z,1.00
2022-08-11T17:55:55.897Z,1.00
2022-08-11T17:58:44.684Z,1.00
2022-08-11T18:01:13.048Z,1.00
2022-08-11T18:03:57.309Z,1.00
2022-08-11T18:06:33.997Z,1.00
2022-08-11T18:09:22.997Z,1.00
2022-08-11T18:12:12.694Z,1.00
2022-08-11T18:15:02.650Z,1.00
2022-08-11T18:17:48.581Z,1.00
2022-08-11T18:20:34.466Z,1.00
2022-08-11T18:23:42.032Z,1.00
2022-08-11T18:26:31.735Z,1.00
2022-08-11T18:29:18.909Z,1.00
2022-08-11T18:32:08.599Z,1.00
2022-08-11T18:34:59.156Z,1.00
2022-08-11T18:37:49.617Z,1.00
2022-08-11T18:40:45.990Z,1.00
2022-08-11T18:43:33.903Z,1.00
2022-08-11T18:46:26.101Z,1.00
2022-08-11T18:49:21.900Z,1.00
2022-08-11T18:52:11.123Z,1.00
2022-08-11T18:55:00.112Z,1.00
2022-08-11T18:57:49.944Z,1.00
2022-08-11T19:00:41.868Z,1.00
2022-08-11T19:03:30.973Z,1.00
2022-08-11T19:06:38.931Z,1.00
2022-08-11T19:09:30.878Z,1.00
2022-08-11T19:12:18.395Z,1.00
2022-08-11T19:15:06.786Z,1.00
2022-08-11T19:17:54.923Z,1.00
2022-08-11T19:20:43.879Z,1.00
2022-08-11T19:23:33.465Z,1.00
2022-08-11T19:26:20.492Z,1.00
2022-08-11T19:29:08.241Z,1.00
2022-08-11T19:31:56.844Z,1.00
2022-08-11T19:34:44.013Z,1.00
2022-08-11T19:37:32.334Z,1.00
2022-08-11T19:40:26.828Z,1.00
2022-08-11T19:43:24.522Z,1.00
2022-08-11T19:46:15.438Z,1.00
2022-08-11T19:49:04.006Z,1.00
2022-08-11T19:51:54.281Z,1.00
2022-08-11T19:54:47.722Z,1.00
2022-08-11T19:57:39.279Z,1.00
2022-08-11T20:00:33.365Z,1.00
2022-08-11T20:03:22.257Z,1.00
2022-08-11T20:06:08.599Z,1.00
2022-08-11T20:08:58.879Z,1.00
2022-08-11T20:11:49.072Z,1.00
2022-08-11T20:14:37.419Z,1.00
2022-08-11T20:17:25.450Z,1.00
2022-08-11T20:20:12.285Z,1.00
2022-08-11T20:22:59.779Z,1.00
2022-08-11T20:25:48.242Z,1.00
2022-08-11T20:28:38.291Z,1.00
2022-08-11T20:31:26.450Z,1.00
2022-08-11T20:34:15.868Z,1.00
2022-08-11T20:37:04.606Z,1.00
2022-08-11T20:39:53.218Z,1.00
2022-08-11T20:42:39.603Z,1.00
2022-08-11T20:45:28.835Z,1.00
2022-08-11T20:48:16.291Z,1.00
2022-08-11T20:51:07.208Z,1.00
2022-08-11T20:53:59.564Z,1.00
2022-08-11T20:56:54.130Z,1.00
2022-08-11T20:59:49.450Z,1.00
2022-08-11T21:02:44.527Z,1.00
2022-08-11T21:06:08.934Z,1.00
2022-08-11T21:08:38.466Z,1.00
2022-08-11T21:11:29.086Z,1.00
2022-08-11T21:14:17.646Z,1.00
2022-08-11T21:17:27.611Z,1.00
2022-08-11T21:20:21.151Z,1.00
2022-08-11T21:23:23.332Z,1.00
2022-08-11T21:26:17.121Z,1.00
2022-08-11T21:29:04.028Z,1.00
2022-08-11T21:31:53.416Z,1.00
2022-08-11T21:34:41.153Z,1.00
2022-08-11T21:37:28.990Z,1.00
2022-08-11T21:40:20.334Z,1.00
2022-08-11T21:43:09.127Z,1.00
2022-08-11T21:45:59.488Z,1.00
2022-08-11T21:48:46.189Z,1.00
2022-08-11T21:51:31.823Z,1.00
2022-08-11T21:54:19.312Z,1.00
2022-08-11T21:57:09.496Z,1.00
2022-08-11T22:00:14.020Z,1.00
2022-08-11T22:03:04.846Z,1.00
2022-08-11T22:05:53.069Z,1.00
2022-08-11T22:08:39.605Z,1.00
2022-08-11T22:11:32.429Z,1.00
2022-08-11T22:14:22.062Z,1.00
2022-08-11T22:17:08.053Z,1.00
2022-08-11T22:19:56.120Z,1.00
2022-08-11T22:22:52.047Z,1.00
2022-08-11T22:25:50.730Z,1.00
2022-08-11T22:28:37.800Z,1.00
2022-08-11T22:31:25.526Z,1.00
2022-08-11T22:34:11.384Z,1.00
2022-08-11T22:36:59.111Z,1.00
2022-08-11T22:40:00.006Z,1.00
2022-08-11T22:42:48.349Z,1.00
2022-08-11T22:45:34.179Z,1.00
2022-08-11T22:48:23.231Z,1.00
2022-08-11T22:51:10.553Z,1.00
2022-08-11T22:53:58.393Z,1.00
2022-08-11T22:56:49.569Z,1.00
2022-08-11T22:59:36.215Z,1.00
2022-08-11T23:02:24.211Z,1.00
2022-08-11T23:05:11.334Z,1.00
2022-08-11T23:07:57.763Z,1.00
2022-08-11T23:10:45.340Z,1.00
2022-08-11T23:13:32.370Z,1.00
2022-08-11T23:16:18.487Z,1.00
2022-08-11T23:19:05.699Z,1.00
2022-08-11T23:21:53.388Z,1.00
2022-08-11T23:24:40.590Z,1.00
2022-08-11T23:27:28.590Z,1.00
2022-08-11T23:30:18.734Z,1.00
2022-08-11T23:33:07.029Z,1.00
2022-08-11T23:35:57.906Z,1.00
2022-08-11T23:38:43.864Z,1.00
2022-08-11T23:41:33.721Z,1.00
2022-08-11T23:44:24.543Z,1.00
2022-08-11T23:47:18.595Z,1.00
2022-08-11T23:50:09.448Z,1.00
2022-08-11T23:52:55.926Z,1.00
2022-08-11T23:55:41.580Z,1.00
2022-08-11T23:58:29.516Z,1.00
